KBBF

Brazos 133

Brazos 133, Texas, USA
METAR KBBF 171155Z AUTO 07006KT 5SM HZ CLR 17/13 A3023 RMK A01
Observed Flight Rules
Dec-17 @ 11:55 UTC (13 minutes ago) Marginal Visual Flight Rules
Wind Visibility Clouds Conditions
70° at 6 knots 5 miles
  • Clear skies
  • Haze
Temperatures Readings
Current 17°C / 63°F
Dewpoint 13°C / 55°F
Humidity 77%
Altimeter 30.23" Hg
Pressure 1024 hPa
Elevation 36
METAR KBBF 171155Z AUTO 07006KT 5SM HZ CLR 17/13 A3023 RMK A01
Observed Flight Rules
Dec-17 @ 11:55 UTC
(13 minutes ago)
MVFR
Wind Visibility
70° at 6 knots 5 miles
Clouds
  • Clear skies
Conditions
  • Haze
Temperature Dewpoint
17°C / 63°F 13°C / 55°F
Humidity Altimeter Pressure
77% 30.23" Hg 1024 hPa